Tuesday, December 18, 2018, 12:41 PM EST
Back to Local

KDXR, Danbury Municipal Airport

Location: Danbury, CT, United States Lat: 41.367
Local Time: 12:41 PM EST (17:41 GMT) Lon: -73.483
Time Zone: US/Eastern Elev: 459 ft

Show me the last for .
Show Decoded

2018-12-18 11:53 METAR KDXR 181653Z 34013G21KT 10SM CLR M01/M13 A2999 RMK AO2 PK WND 32027/1612
                 SLP160 T10111133 =
2018-12-18 10:53 METAR KDXR 181553Z 33012G22KT 10SM CLR M02/M13 A3000 RMK AO2 PK WND 01029/1458
                 SLP163 T10171133 =
2018-12-18 09:53 METAR KDXR 181453Z 35019G29KT 10SM CLR M03/M13 A3000 RMK AO2 PK WND 36029/1452
                 SLP164 T10281128 51025 =
2018-12-18 08:53 METAR KDXR 181353Z 33012G19KT 10SM CLR M04/M12 A2998 RMK AO2 PK WND 31026/1320
                 SLP157 T10391117 =
2018-12-18 07:53 METAR KDXR 181253Z 34009G19KT 10SM CLR M04/M12 A2996 RMK AO2 SLP148 T10441117 =
2018-12-18 06:53 METAR KDXR 181153Z 34011G20KT 10SM CLR M04/M11 A2993 RMK AO2 SLP138 T10441111
                 10022 21044 53038 =
2018-12-18 05:53 METAR KDXR 181053Z AUTO 35014G21KT 310V010 10SM CLR M03/M11 A2988 RMK AO2 SLP121
                 T10331111 =
2018-12-18 04:53 METAR KDXR 180953Z AUTO 32011G20KT 10SM CLR M03/M11 A2985 RMK AO2 SLP111
                 T10281106 =
2018-12-18 03:53 METAR KDXR 180853Z AUTO 31013G23KT 10SM CLR M02/M10 A2981 RMK AO2 SLP098
                 T10171100 51029 =
2018-12-18 02:53 METAR KDXR 180753Z AUTO 32012G23KT 10SM CLR M01/M09 A2979 RMK AO2 PK WND
                 30027/0711 SLP092 T10061094 =
2018-12-18 01:53 METAR KDXR 180653Z AUTO 31010G16KT 10SM SCT050 01/M08 A2976 RMK AO2 PK WND
                 29026/0554 SLP082 T00061078 =
2018-12-18 00:53 METAR KDXR 180553Z AUTO 29013G21KT 10SM BKN050 BKN065 02/M07 A2972 RMK AO2
                 SLP067 T00221067 10039 20022 53007 =
2018-12-17 23:53 METAR KDXR 180453Z AUTO 30011G22KT 260V320 10SM OVC050 02/M05 A2970 RMK AO2 PK
                 WND 27027/0402 SLP060 T00221050 400610011 =
2018-12-17 22:53 METAR KDXR 180353Z AUTO 27013G24KT 10SM BKN060 03/M04 A2970 RMK AO2 PK WND
                 28026/0343 SLP060 T00281044 =
2018-12-17 21:53 METAR KDXR 180253Z 28011G18KT 260V320 10SM FEW045 OVC060 03/M04 A2970 RMK AO2
                 SLP061 T00331044 50000 =
2018-12-17 20:53 METAR KDXR 180153Z 29008KT 10SM FEW047 OVC065 04/M04 A2971 RMK AO2 SLP062
                 T00391044 =
2018-12-17 19:53 METAR KDXR 180053Z 29009G16KT 260V330 10SM FEW041 FEW050 OVC060 04/M04 A2971 RMK
                 AO2 SLP063 T00391039 =
2018-12-17 18:53 METAR KDXR 172353Z 28010G16KT 250V310 10SM OVC055 04/M04 A2970 RMK AO2 SLP061
                 T00391039 10061 20039 51017 =
2018-12-17 17:53 METAR KDXR 172253Z 28008KT 220V310 10SM SCT048 OVC060 04/M04 A2969 RMK AO2
                 SLP057 T00441039 =
2018-12-17 16:53 METAR KDXR 172153Z 28011G18KT 10SM OVC043 04/M04 A2967 RMK AO2 SLP050 T00441039
                 =
2018-12-17 15:53 METAR KDXR 172053Z 28011G20KT 10SM OVC050 05/M04 A2965 RMK AO2 SLP044 T00501039
                 53004 =
2018-12-17 14:53 METAR KDXR 171953Z 29007G16KT 10SM FEW036 BKN048 OVC060 06/M03 A2964 RMK AO2
                 SLP038 T00561028 =
2018-12-17 13:53 METAR KDXR 171853Z 27011G16KT 10SM SCT032 OVC055 06/M01 A2963 RMK AO2 PK WND
                 30027/1758 SLP034 T00561011 =
2018-12-17 13:20 METAR KDXR 171820Z 29010G17KT 10SM SCT028 OVC044 06/M01 A2963 RMK AO2 PK WND
                 30027/1758 T00561011 =
2018-12-17 13:12 METAR KDXR 171812Z 28011G21KT 10SM BKN029 OVC040 05/M01 A2963 RMK AO2 PK WND
                 30027/1758 T00501006 =
2018-12-17 12:53 METAR KDXR 171753Z 29008G18KT 260V320 10SM OVC030 05/M01 A2964 RMK AO2 SLP040
                 T00501011 10056 20011 56029 =

Support USWX by starting your Amazon purchase here.